Nearby METAR Reports

 

KICL - Clarinda, Iowa, USA
Distance from station: N 49mi, 79km
Updated: Thu, 14-Nov-2019 3:15am CST
Clear
Clear
 Wind from NNW
Wind: NNW 7 mph , 11 km/h
Temperature: 30°F , -1°C
Wind Chill: 23°F , -5°C
Dew Point: 30°F , -1°C
Humidity: 100%
Barometer: 30.21 inHg , 1023 hPa
Clouds: Clear
Visibility: 10 miles , 16 km
2019/11/14 09:15 KICL 140915Z AUTO 33006KT 10SM CLR M01/M01 A3021 RMK AO2
KDSM - Des Moines, Iowa, USA
Distance from station: NNE 122mi, 196km
Updated: Thu, 14-Nov-2019 2:54am CST
Overcast
Overcast
 Wind from N
Wind: N 8 mph , 13 km/h
Temperature: 28°F , -2°C
Wind Chill: 20°F , -7°C
Dew Point: 19°F , -7°C
Humidity: 69%
Barometer: 30.17 inHg , 1021.7 hPa
Clouds: Overcast
Visibility: 10 miles , 16 km
Cloud details: Overcast 2400 ft
2019/11/14 08:54 KDSM 140854Z 35007KT 10SM OVC024 M02/M07 A3017 RMK AO2 SLP227 T10221067 51013
KFNB - Falls City, Nebraska, USA
Distance from station: W 50mi, 80km
Updated: Thu, 14-Nov-2019 2:53am CST
Few Clouds
Few Clouds
 Wind from NNW
Wind: NNW 7 mph , 11 km/h
Temperature: 34°F , 1°C
Wind Chill: 28°F , -2°C
Dew Point: 28°F , -2°C
Humidity: 81%
Barometer: 30.20 inHg , 1022.7 hPa
Clouds: Few Clouds
Visibility: 10 miles , 16 km
Cloud details: Few Clouds 5500 ft
2019/11/14 08:53 KFNB 140853Z AUTO 33006KT 10SM FEW055 01/M02 A3020 RMK AO2 SLP234 T00061022 51021
 
KMCI - Kansas City, Missouri, USA
Distance from station: S 65mi, 104km
Updated: Thu, 14-Nov-2019 3:12am CST
Overcast
Overcast
 Wind from NW
Wind: NW 6 mph , 9 km/h
Temperature: 36°F , 2°C
Wind Chill: 31°F , -1°C
Dew Point: 28°F , -2°C
Humidity: 75%
Barometer: 30.18 inHg , 1022 hPa
Clouds: Overcast
Visibility: 10 miles , 16 km
Cloud details: Mostly cloudy 2600 ft
Overcast 6000 ft
2019/11/14 09:12 KMCI 140912Z 32005KT 10SM BKN026 OVC060 02/M02 A3018 RMK AO2 T00171022
KOMA - Omaha, Nebraska, USA
Distance from station: NNW 105mi, 169km
Updated: Thu, 14-Nov-2019 2:52am CST
Mostly cloudy
Mostly cloudy
 Wind from NNW
Wind: NNW 6 mph , 9 km/h
Temperature: 27°F , -3°C
Wind Chill: 20°F , -7°C
Dew Point: 25°F , -4°C
Humidity: 93%
Barometer: 30.21 inHg , 1023 hPa
Clouds: Mostly cloudy
Visibility: 10 miles , 16 km
Cloud details: Few Clouds 20000 ft
Mostly cloudy 25000 ft
2019/11/14 08:52 KOMA 140852Z 33005KT 10SM FEW200 BKN250 M03/M04 A3021 RMK AO2 SLP238 T10281044 51017
KRDK - Red Oak, Iowa, USA
Distance from station: N 70mi, 112km
Updated: Thu, 14-Nov-2019 3:15am CST
Mostly cloudy
Mostly cloudy
 Wind from calm
Wind: Calm
Temperature: 27°F , -3°C
Dew Point: 25°F , -4°C
Humidity: 93%
Barometer: 30.20 inHg , 1022.7 hPa
Clouds: Mostly cloudy
Visibility: 10 miles , 16 km
Cloud details: Partly cloudy 19000 ft
Mostly cloudy 21000 ft
Mostly cloudy 24000 ft
2019/11/14 09:15 KRDK 140915Z AUTO 00000KT 10SM SCT190 BKN210 BKN240 M03/M04 A3020 RMK AO2
 
KSTJ - Saint Joseph, Missouri, USA
Distance from station: SW 23mi, 37km
Updated: Thu, 14-Nov-2019 2:53am CST
Overcast
Overcast
 Wind from calm
Wind: Calm
Temperature: 30°F , -1°C
Dew Point: 27°F , -3°C
Humidity: 86%
Barometer: 30.20 inHg , 1022.7 hPa
Clouds: Overcast
Visibility: 10 miles , 16 km
Cloud details: Mostly cloudy 2500 ft
Overcast 6000 ft
2019/11/14 08:53 KSTJ 140853Z AUTO 00000KT 10SM BKN025 OVC060 M01/M03 A3020 RMK AO2 SLP232 T10061028 53018 $
KTOP - Topeka, Kansas, USA
Distance from station: SW 85mi, 137km
Updated: Thu, 14-Nov-2019 2:53am CST
Overcast
Overcast
 Wind from W
Wind: W 6 mph , 9 km/h
Temperature: 36°F , 2°C
Wind Chill: 31°F , -1°C
Dew Point: 23°F , -5°C
Humidity: 60%
Barometer: 30.21 inHg , 1023 hPa
Clouds: Overcast
Visibility: 10 miles , 16 km
Cloud details: Overcast 3600 ft
2019/11/14 08:53 KTOP 140853Z AUTO 28005KT 10SM OVC036 02/M05 A3021 RMK AO2 SLP234 T00171050 51020
KICT - Wichita, Kansas, USA
Distance from station: SW 215mi, 346km
Updated: Thu, 14-Nov-2019 2:53am CST
Clear
Clear
 Wind from NNW
Wind: NNW 8 mph , 13 km/h
Temperature: 30°F , -1°C
Wind Chill: 22°F , -6°C
Dew Point: 19°F , -7°C
Humidity: 64%
Barometer: 30.22 inHg , 1023.4 hPa
Clouds: Clear
Visibility: 10 miles , 16 km
2019/11/14 08:53 KICT 140853Z 33007KT 10SM CLR M01/M07 A3022 RMK AO2 SLP240 T10111072 53016 $